Time;durP1;ratioP1;P1;durP2;ratioP2;P2;SDS_P1;SDS_P2;PMS_P1;PMS_P2;Temp;Humidity;BMP_temperature;BMP_pressure;BME280_temperature;BME280_humidity;BME280_pressure;Samples;Min_cycle;Max_cycle;Signal;HPM_P1;HPM_P2
2023/07/21 00:31:49;;;;;;;;;;;;;;;;;;;;;
2023/07/21 02:48:02;;;;;;;1.60;0.80;;;22.10;76.20;;;;;;6236755;22;20600;-87
2023/07/21 03:06:28;;;;;;;;;;;;;;;;;;;;;
2023/07/21 03:09:54;;;;;;;3.92;1.10;;;21.20;78.10;;;;;;5862404;24;20200;-86
2023/07/21 03:30:07;;;;;;;2.45;0.95;;;21.90;76.80;;;;;;5855485;24;20094;-88
2023/07/21 03:32:39;;;;;;;3.58;0.90;;;21.90;76.60;;;;;;6016359;23;20865;-88
2023/07/21 03:35:07;;;;;;;1.67;0.90;;;21.80;77.30;;;;;;6062661;23;20036;-89
2023/07/21 03:37:38;;;;;;;2.00;0.85;;;21.80;77.00;;;;;;6063800;23;20105;-87
2023/07/21 03:40:15;;;;;;;4.38;1.17;;;21.70;77.20;;;;;;6063617;23;20049;-86
2023/07/21 03:42:50;;;;;;;2.78;1.35;;;21.80;77.50;;;;;;6063575;23;20117;-85
2023/07/21 03:45:26;;;;;;;3.08;1.02;;;21.70;77.90;;;;;;6063384;23;20023;-86
2023/07/21 03:47:53;;;;;;;2.70;1.05;;;21.80;78.50;;;;;;6062456;23;20057;-87
2023/07/21 03:50:21;;;;;;;2.88;1.27;;;21.80;79.10;;;;;;6060011;23;20556;-88
2023/07/21 03:52:50;;;;;;;3.58;1.88;;;21.80;79.30;;;;;;6092994;23;20037;-85
2023/07/21 03:55:32;;;;;;;4.32;1.58;;;21.70;80.00;;;;;;6158099;23;20027;-87
2023/07/21 03:58:15;;;;;;;3.50;1.73;;;21.80;80.90;;;;;;6158745;23;20039;-87
2023/07/21 04:00:45;;;;;;;4.65;1.50;;;21.70;81.20;;;;;;6158183;23;20083;-88
2023/07/21 04:03:20;;;;;;;2.97;1.73;;;21.70;81.10;;;;;;6156856;23;20025;-87
2023/07/21 04:06:18;;;;;;;4.53;1.58;;;21.70;81.80;;;;;;6155925;23;20020;-86
2023/07/21 04:09:13;;;;;;;2.40;1.20;;;21.70;81.90;;;;;;6158808;23;20027;-87
2023/07/21 04:11:46;;;;;;;4.60;1.83;;;21.70;82.60;;;;;;6119559;23;20028;-85
2023/07/21 04:14:14;;;;;;;3.30;1.50;;;21.60;83.40;;;;;;6119981;23;20762;-80
2023/07/21 04:17:05;;;;;;;7.97;1.90;;;21.80;83.50;;;;;;6121470;23;20032;-87
2023/07/21 04:19:35;;;;;;;7.05;2.08;;;21.80;84.30;;;;;;6122694;23;20021;-86
2023/07/21 04:22:08;;;;;;;3.35;2.60;;;22.00;85.30;;;;;;6119732;23;20021;-87
2023/07/21 04:24:46;;;;;;;2.55;1.85;;;21.90;86.10;;;;;;6122784;23;20024;-87
2023/07/21 04:27:15;;;;;;;6.00;2.40;;;22.00;86.80;;;;;;6120559;23;20460;-93
2023/07/21 04:29:42;;;;;;;9.30;2.72;;;22.10;87.20;;;;;;6097103;23;20134;-87
2023/07/21 04:32:16;;;;;;;6.07;2.58;;;22.00;87.90;;;;;;6120024;23;20025;-86
2023/07/21 04:35:02;;;;;;;4.55;2.38;;;21.90;88.50;;;;;;6111516;23;20045;-86
2023/07/21 04:38:00;;;;;;;3.67;1.83;;;21.90;89.10;;;;;;6066322;23;20089;-87
2023/07/21 04:40:33;;;;;;;3.65;2.40;;;21.60;89.30;;;;;;6041862;23;20462;-87
2023/07/21 04:43:06;;;;;;;4.55;2.63;;;22.00;88.90;;;;;;6082921;23;20085;-84
2023/07/21 04:46:00;;;;;;;4.75;2.03;;;21.60;88.40;;;;;;6112174;23;20556;-85
2023/07/21 04:49:18;;;;;;;;;;;;;;;;;;;;;
2023/07/21 04:51:53;;;;;;;2.60;1.67;;;22.40;87.50;;;;;;6116972;23;20135;-86
2023/07/21 04:54:47;;;;;;;2.92;1.65;;;21.90;87.60;;;;;;6031336;23;20034;-85
2023/07/21 05:01:35;;;;;;;3.30;1.50;;;22.10;86.30;;;;;;6140920;23;20025;-85
2023/07/21 05:04:48;;;;;;;3.60;1.95;;;22.10;85.60;;;;;;6115374;23;20065;-89
2023/07/21 05:07:34;;;;;;;4.15;2.47;;;22.20;85.20;;;;;;6169512;23;20151;-83
2023/07/21 05:10:19;;;;;;;4.18;2.05;;;22.70;85.80;;;;;;6120675;23;20021;-89
2023/07/21 05:17:55;;;;;;;3.40;2.13;;;22.50;85.40;;;;;;6156734;23;20777;-86
2023/07/21 05:21:08;;;;;;;4.85;2.30;;;22.60;84.60;;;;;;6027728;23;20411;-86
2023/07/21 05:29:27;;;;;;;3.67;1.90;;;22.40;85.50;;;;;;5995651;23;20125;-86
2023/07/21 05:47:02;;;;;;;3.78;2.15;;;22.30;86.80;;;;;;5811825;24;20588;-86
2023/07/21 06:05:51;;;;;;;3.42;2.03;;;22.80;85.60;;;;;;6266845;22;20093;-88
2023/07/21 06:09:34;;;;;;;3.60;2.03;;;23.10;85.40;;;;;;6086015;23;20037;-86
2023/07/21 06:13:00;;;;;;;4.85;2.17;;;23.00;85.60;;;;;;6036659;23;20442;-83
2023/07/21 06:15:47;;;;;;;2.85;2.20;;;23.00;85.90;;;;;;6069758;23;20124;-85
2023/07/21 06:18:45;;;;;;;3.08;2.30;;;23.00;86.40;;;;;;6108958;23;20025;-85
2023/07/21 06:21:22;;;;;;;5.82;2.33;;;23.00;85.80;;;;;;6112432;23;20034;-82
2023/07/21 06:24:36;;;;;;;4.47;2.35;;;22.90;85.80;;;;;;6111665;23;20022;-85
2023/07/21 06:27:27;;;;;;;4.47;2.33;;;22.90;86.00;;;;;;6095258;23;20029;-87
2023/07/21 06:31:00;;;;;;;4.45;2.50;;;22.90;86.40;;;;;;6106131;23;20108;-88
2023/07/21 06:33:59;;;;;;;3.60;2.40;;;23.10;86.40;;;;;;6108619;23;20026;-80
2023/07/21 06:36:39;;;;;;;4.93;2.50;;;23.00;86.60;;;;;;6113160;23;20018;-82
2023/07/21 06:40:09;;;;;;;6.00;2.95;;;23.10;86.50;;;;;;6092335;23;20026;-86
2023/07/21 06:43:00;;;;;;;6.43;2.88;;;23.10;86.40;;;;;;6123949;23;20683;-87
2023/07/21 06:46:19;;;;;;;5.97;2.80;;;23.20;87.00;;;;;;6214504;23;20020;-85
2023/07/21 07:07:45;;;;;;;3.45;2.30;;;23.10;88.20;;;;;;5968208;23;20900;-86
2023/07/21 07:11:02;;;;;;;3.78;2.13;;;23.10;87.80;;;;;;5978619;23;20052;-87
2023/07/21 07:18:00;;;;;;;4.93;2.22;;;23.20;87.60;;;;;;5940827;24;20028;-87
2023/07/21 07:21:33;;;;;;;8.35;2.38;;;23.20;87.70;;;;;;5923886;24;20454;-83
2023/07/21 07:24:22;;;;;;;4.40;2.15;;;23.20;88.00;;;;;;5942692;24;20130;-87
2023/07/21 07:26:56;;;;;;;4.35;2.67;;;23.20;87.80;;;;;;5921230;24;20016;-90
2023/07/21 07:29:59;;;;;;;5.88;2.75;;;23.20;87.80;;;;;;5969304;24;20032;-91
2023/07/21 07:33:40;;;;;;;;;;;;;;;;;;;;;
2023/07/21 07:36:38;;;;;;;4.47;2.17;;;23.50;87.90;;;;;;5936903;24;20539;-85
2023/07/21 07:39:23;;;;;;;4.00;2.40;;;23.30;87.40;;;;;;5952457;23;20095;-88
2023/07/21 07:42:31;;;;;;;6.25;2.67;;;23.60;87.20;;;;;;6124409;23;20029;-87
2023/07/21 07:45:11;;;;;;;4.95;2.20;;;23.80;86.80;;;;;;6118894;23;20448;-84
2023/07/21 07:48:24;;;;;;;5.03;2.10;;;23.90;85.90;;;;;;6113269;23;20035;-81
2023/07/21 07:51:30;;;;;;;5.97;2.40;;;23.80;84.60;;;;;;6048725;23;20194;-87
2023/07/21 07:54:44;;;;;;;4.57;2.53;;;23.80;84.60;;;;;;5940085;23;20045;-87
2023/07/21 07:57:19;;;;;;;5.95;2.78;;;23.80;85.00;;;;;;6026862;23;20046;-89
2023/07/21 08:03:12;;;;;;;;;;;23.70;85.50;;;;;;6033236;23;20023;-86
2023/07/21 08:05:55;;;;;;;4.78;2.40;;;23.60;85.30;;;;;;6026873;23;19954;-86
2023/07/21 08:09:48;;;;;;;3.00;2.45;;;23.60;85.70;;;;;;6032493;23;20101;-85
2023/07/21 08:13:08;;;;;;;4.18;1.83;;;24.00;85.80;;;;;;5987090;23;20148;-86
2023/07/21 08:16:14;;;;;;;3.00;2.65;;;23.90;85.40;;;;;;6081633;23;20018;-87
2023/07/21 08:19:04;;;;;;;;;;;;;;;;;;;;;
2023/07/21 08:26:52;;;;;;;5.97;2.25;;;24.00;84.40;;;;;;5999370;23;20028;-85
2023/07/21 08:30:34;;;;;;;4.03;2.42;;;24.00;84.40;;;;;;5953657;23;20074;-86
2023/07/21 08:38:22;;;;;;;3.88;2.25;;;24.10;84.90;;;;;;6027507;23;20076;-88
2023/07/21 08:41:25;;;;;;;5.37;2.50;;;24.20;84.30;;;;;;6028167;23;20028;-86
2023/07/21 08:43:58;;;;;;;5.75;2.40;;;24.60;83.60;;;;;;6002838;23;20320;-80
2023/07/21 08:46:58;;;;;;;4.80;2.50;;;25.30;82.90;;;;;;5972374;23;20104;-87
2023/07/21 08:58:40;;;;;;;3.30;2.05;;;25.50;80.30;;;;;;6123767;22;20077;-82
2023/07/21 09:01:09;;;;;;;3.78;2.60;;;25.50;80.60;;;;;;6157158;23;20025;-79
2023/07/21 09:03:44;;;;;;;3.53;2.45;;;25.70;79.80;;;;;;6157205;23;20021;-84
2023/07/21 09:06:15;;;;;;;3.63;2.40;;;26.00;78.70;;;;;;6157806;23;20067;-83
2023/07/21 09:08:50;;;;;;;4.85;2.67;;;26.10;78.50;;;;;;6157175;23;20025;-80
2023/07/21 09:11:17;;;;;;;6.47;3.05;;;26.50;77.50;;;;;;6159175;23;20132;-85
2023/07/21 09:13:56;;;;;;;3.83;2.60;;;26.60;77.60;;;;;;6157533;23;20032;-81
2023/07/21 09:16:24;;;;;;;4.53;2.38;;;26.70;77.30;;;;;;6183722;23;20021;-83
2023/07/21 09:18:52;;;;;;;6.03;2.78;;;27.00;77.30;;;;;;6159101;23;20125;-84
2023/07/21 09:21:23;;;;;;;;;;;27.00;75.70;;;;;;6183497;23;20080;-80
2023/07/21 09:23:51;;;;;;;6.00;2.50;;;26.90;76.00;;;;;;6157713;23;19926;-83
2023/07/21 09:26:23;;;;;;;4.32;2.53;;;26.60;76.00;;;;;;6158776;23;20678;-84
2023/07/21 09:28:51;;;;;;;16.63;3.75;;;26.50;77.90;;;;;;6182283;23;20020;-82
2023/07/21 09:31:33;;;;;;;2.97;2.53;;;26.40;77.10;;;;;;6157213;23;20014;-83
2023/07/21 09:34:06;;;;;;;6.07;2.50;;;26.30;77.40;;;;;;6158078;23;20028;-82
2023/07/21 09:36:34;;;;;;;3.90;2.42;;;26.30;76.60;;;;;;6158489;23;20108;-82
2023/07/21 09:39:04;;;;;;;4.45;2.00;;;26.30;77.20;;;;;;6158653;23;20026;-84
2023/07/21 09:41:34;;;;;;;4.72;2.20;;;26.20;77.00;;;;;;6180692;23;20025;-80
2023/07/21 09:44:07;;;;;;;3.35;1.80;;;26.20;76.80;;;;;;6158494;23;20036;-82
2023/07/21 09:46:34;;;;;;;4.22;2.33;;;26.20;77.20;;;;;;6181901;23;20025;-80
2023/07/21 09:49:02;;;;;;;4.20;2.72;;;26.20;77.10;;;;;;6181780;23;20017;-83
2023/07/21 09:51:31;;;;;;;2.67;2.10;;;26.10;77.60;;;;;;6182735;23;20021;-85
2023/07/21 09:54:03;;;;;;;3.83;2.40;;;26.10;77.60;;;;;;6156896;23;20820;-82
2023/07/21 09:56:35;;;;;;;3.70;1.92;;;26.20;77.00;;;;;;6156871;23;20025;-83
2023/07/21 09:59:05;;;;;;;3.25;2.20;;;26.20;76.90;;;;;;6157912;23;20029;-82
2023/07/21 10:01:33;;;;;;;2.85;2.20;;;26.20;76.60;;;;;;6159458;23;20338;-81
2023/07/21 10:04:02;;;;;;;3.08;1.92;;;26.20;76.30;;;;;;6158773;23;20028;-82
2023/07/21 10:06:32;;;;;;;5.85;2.22;;;26.10;75.50;;;;;;6183069;23;20021;-78
2023/07/21 10:09:01;;;;;;;5.55;2.38;;;26.20;75.80;;;;;;6182390;23;20044;-82
2023/07/21 10:11:28;;;;;;;4.82;1.83;;;26.20;75.90;;;;;;6158189;23;20667;-82
2023/07/21 10:13:55;;;;;;;2.63;2.03;;;26.40;74.80;;;;;;6158863;23;20028;-82
2023/07/21 10:16:23;;;;;;;6.75;2.17;;;26.40;74.40;;;;;;6187203;23;20017;-82
2023/07/21 10:19:11;;;;;;;3.88;1.95;;;26.60;74.70;;;;;;6161841;23;20691;-79
2023/07/21 10:21:51;;;;;;;2.30;1.73;;;26.50;75.10;;;;;;6184733;23;20361;-82
2023/07/21 10:24:23;;;;;;;2.40;1.80;;;26.40;74.20;;;;;;6158683;23;20021;-81
2023/07/21 10:27:02;;;;;;;3.97;2.15;;;26.50;75.00;;;;;;6159557;23;20025;-82
2023/07/21 10:29:29;;;;;;;4.43;2.35;;;26.50;74.50;;;;;;6158033;23;20684;-82
2023/07/21 10:31:58;;;;;;;4.03;1.67;;;26.50;75.00;;;;;;6158873;23;20048;-82
2023/07/21 10:34:46;;;;;;;3.92;1.70;;;26.50;74.10;;;;;;6158730;23;20028;-82
2023/07/21 10:37:16;;;;;;;3.60;2.30;;;26.50;75.10;;;;;;6183202;23;20091;-82
2023/07/21 10:39:53;;;;;;;3.47;2.10;;;26.50;75.30;;;;;;6157387;23;20076;-81
2023/07/21 10:42:21;;;;;;;3.20;2.08;;;26.60;75.40;;;;;;6158966;23;20028;-83
2023/07/21 10:44:48;;;;;;;3.00;2.00;;;26.60;75.40;;;;;;6158220;23;20025;-81
2023/07/21 10:47:18;;;;;;;3.58;2.35;;;26.60;74.90;;;;;;6157157;23;20029;-81
2023/07/21 10:49:47;;;;;;;7.60;2.53;;;26.60;75.90;;;;;;6157879;23;20013;-80
2023/07/21 10:52:16;;;;;;;3.55;2.05;;;26.50;75.40;;;;;;6184070;23;20019;-83
2023/07/21 10:54:44;;;;;;;2.80;1.92;;;26.40;75.80;;;;;;6158420;23;20020;-83
2023/07/21 10:57:12;;;;;;;4.38;2.00;;;26.40;75.40;;;;;;6182687;23;20468;-81
2023/07/21 10:59:40;;;;;;;4.32;1.92;;;26.50;74.60;;;;;;6158284;23;20029;-83
2023/07/21 11:02:07;;;;;;;4.30;2.42;;;26.50;74.80;;;;;;6158057;23;20433;-81
2023/07/21 11:04:39;;;;;;;3.03;1.80;;;26.60;75.10;;;;;;6183035;23;20448;-82
2023/07/21 11:07:07;;;;;;;4.63;2.30;;;26.50;75.40;;;;;;6157601;23;20061;-81
2023/07/21 11:09:42;;;;;;;3.17;1.90;;;26.40;75.20;;;;;;6158173;23;20032;-83
2023/07/21 11:12:09;;;;;;;2.78;2.03;;;26.40;76.40;;;;;;6156208;23;20083;-82
2023/07/21 11:14:36;;;;;;;5.50;2.15;;;26.40;76.90;;;;;;6156377;23;20100;-82
2023/07/21 11:17:04;;;;;;;4.07;2.15;;;26.30;77.30;;;;;;6158139;23;20115;-82
2023/07/21 11:19:33;;;;;;;3.88;1.80;;;26.40;77.60;;;;;;6182037;23;20021;-82
2023/07/21 11:22:03;;;;;;;3.58;1.95;;;26.40;77.30;;;;;;6158320;23;20116;-83
2023/07/21 11:24:32;;;;;;;2.47;1.60;;;26.60;77.30;;;;;;6133764;23;20017;-79
2023/07/21 11:27:09;;;;;;;2.58;2.10;;;26.60;76.70;;;;;;6182525;23;20025;-80
2023/07/21 11:29:43;;;;;;;4.03;2.10;;;26.40;75.70;;;;;;6181636;23;20021;-80
2023/07/21 11:32:22;;;;;;;3.25;1.73;;;26.40;76.00;;;;;;6156753;23;20357;-84
2023/07/21 11:34:58;;;;;;;2.45;1.90;;;26.30;74.80;;;;;;6155446;23;20056;-80
2023/07/21 11:37:44;;;;;;;2.83;1.77;;;26.40;74.00;;;;;;6183211;23;20048;-78
2023/07/21 11:40:25;;;;;;;2.88;1.90;;;26.40;73.90;;;;;;6183544;23;20087;-81
2023/07/21 11:42:56;;;;;;;2.22;1.40;;;26.40;72.90;;;;;;6158186;23;20781;-83
2023/07/21 11:45:35;;;;;;;3.63;2.37;;;26.50;72.80;;;;;;6178153;23;20113;-81
2023/07/21 11:48:30;;;;;;;5.05;2.10;;;26.50;73.20;;;;;;6152301;23;20109;-78
2023/07/21 11:50:57;;;;;;;3.25;1.70;;;26.50;72.90;;;;;;6179306;23;20104;-80
2023/07/21 11:53:26;;;;;;;3.17;2.33;;;26.50;72.60;;;;;;6182859;23;20056;-81
2023/07/21 11:55:54;;;;;;;2.28;1.63;;;26.50;73.30;;;;;;6157037;23;20051;-80
2023/07/21 11:58:22;;;;;;;4.35;1.92;;;26.40;71.80;;;;;;6156633;23;20104;-81
2023/07/21 12:00:50;;;;;;;2.83;1.60;;;26.30;72.00;;;;;;6157820;23;20274;-83
2023/07/21 12:03:18;;;;;;;2.90;1.75;;;26.30;72.80;;;;;;6158912;23;20079;-81
2023/07/21 12:05:47;;;;;;;4.90;1.63;;;26.40;73.50;;;;;;6157164;23;20093;-82
2023/07/21 12:08:16;;;;;;;5.07;1.95;;;26.40;74.00;;;;;;6155594;23;20027;-81
2023/07/21 12:10:45;;;;;;;3.85;1.88;;;26.30;75.00;;;;;;6181235;23;20539;-81
2023/07/21 12:13:15;;;;;;;2.50;1.40;;;26.20;73.80;;;;;;6181713;23;20028;-81
2023/07/21 12:15:45;;;;;;;2.42;1.65;;;26.00;74.00;;;;;;6157436;23;20021;-82
2023/07/21 12:18:19;;;;;;;3.83;1.70;;;26.10;73.90;;;;;;6157870;23;20738;-82
2023/07/21 12:20:50;;;;;;;4.25;1.75;;;26.50;73.80;;;;;;6177683;23;20021;-81
2023/07/21 12:23:22;;;;;;;3.95;1.83;;;26.60;73.40;;;;;;6181227;23;20044;-83
2023/07/21 12:25:59;;;;;;;4.00;1.63;;;26.60;73.00;;;;;;6159914;23;20028;-81
2023/07/21 12:28:27;;;;;;;3.97;1.55;;;26.60;72.70;;;;;;6158115;23;20024;-81
2023/07/21 12:30:59;;;;;;;3.15;2.22;;;26.70;72.50;;;;;;6180452;23;20095;-81
2023/07/21 12:33:35;;;;;;;3.55;1.80;;;26.80;72.50;;;;;;6183548;23;20449;-81
2023/07/21 12:36:08;;;;;;;4.57;1.40;;;26.80;72.40;;;;;;6151339;23;20048;-81
2023/07/21 12:38:36;;;;;;;2.35;1.48;;;26.90;72.50;;;;;;6156734;23;20025;-80
2023/07/21 12:41:04;;;;;;;3.97;1.90;;;27.00;71.90;;;;;;6157684;23;20445;-83
2023/07/21 12:43:32;;;;;;;3.05;1.35;;;27.00;71.50;;;;;;6154936;23;20408;-81
2023/07/21 12:46:00;;;;;;;3.58;1.60;;;26.90;72.30;;;;;;6182759;23;20025;-82
2023/07/21 12:48:30;;;;;;;4.25;1.80;;;27.00;73.10;;;;;;6181871;23;20046;-83
2023/07/21 13:00:01;;;;;;;3.70;1.80;;;26.80;72.60;;;;;;6199500;23;20043;-83
2023/07/21 13:02:29;;;;;;;3.53;1.63;;;26.90;72.80;;;;;;6188351;23;20028;-81
2023/07/21 13:04:56;;;;;;;2.63;1.45;;;27.00;72.80;;;;;;6188206;23;20021;-82
2023/07/21 13:07:24;;;;;;;3.22;1.33;;;27.00;72.70;;;;;;6187910;23;20017;-81
2023/07/21 13:09:53;;;;;;;3.60;1.30;;;27.10;72.60;;;;;;6163215;23;20021;-80
2023/07/21 13:12:21;;;;;;;3.22;1.70;;;27.10;72.50;;;;;;6185072;23;20091;-81
2023/07/21 13:14:48;;;;;;;2.83;2.00;;;27.20;73.10;;;;;;6188486;23;20732;-82
2023/07/21 13:17:16;;;;;;;4.15;2.00;;;27.10;73.20;;;;;;6188018;23;20031;-82
2023/07/21 13:19:44;;;;;;;6.15;1.88;;;27.10;73.40;;;;;;6164426;23;20036;-81
2023/07/21 13:22:13;;;;;;;2.30;1.80;;;26.90;73.70;;;;;;6163396;23;20080;-83
2023/07/21 13:24:41;;;;;;;4.75;1.88;;;26.80;74.10;;;;;;6164882;23;20025;-83
2023/07/21 13:27:11;;;;;;;3.40;1.70;;;26.70;74.30;;;;;;6164546;23;20052;-82
2023/07/21 13:29:39;;;;;;;4.45;1.70;;;26.70;74.60;;;;;;6188779;23;20079;-84
2023/07/21 13:32:09;;;;;;;3.10;1.70;;;26.70;74.10;;;;;;6163748;23;20043;-82
2023/07/21 13:34:37;;;;;;;4.15;1.83;;;26.60;74.20;;;;;;6163778;23;20040;-81
2023/07/21 13:37:05;;;;;;;4.22;1.58;;;26.50;75.00;;;;;;6188553;23;20482;-80
2023/07/21 13:39:33;;;;;;;4.25;1.90;;;26.30;74.80;;;;;;6187827;23;20025;-82
2023/07/21 13:42:01;;;;;;;4.65;1.73;;;26.30;75.60;;;;;;6187714;23;20482;-82
2023/07/21 13:44:28;;;;;;;5.13;1.95;;;26.20;76.70;;;;;;6159515;23;20020;-84
2023/07/21 13:46:57;;;;;;;4.85;2.00;;;26.00;77.50;;;;;;6159288;23;20111;-82
2023/07/21 13:49:25;;;;;;;7.25;3.40;;;26.00;77.80;;;;;;6163168;23;20021;-81
2023/07/21 13:51:52;;;;;;;5.10;1.70;;;25.90;78.30;;;;;;6163280;23;20012;-81
2023/07/21 13:54:20;;;;;;;3.97;1.98;;;25.80;78.50;;;;;;6165525;23;20022;-83
2023/07/21 13:56:47;;;;;;;5.75;1.85;;;25.90;78.50;;;;;;6160231;23;20494;-81
2023/07/21 13:59:15;;;;;;;6.45;1.80;;;25.90;78.80;;;;;;6165105;23;20031;-83
2023/07/21 14:01:46;;;;;;;2.83;1.83;;;25.90;78.50;;;;;;6165028;23;20285;-82
2023/07/21 14:04:16;;;;;;;3.40;1.80;;;26.10;78.30;;;;;;6191058;23;20099;-84
2023/07/21 14:06:44;;;;;;;4.13;1.67;;;26.20;78.00;;;;;;6165212;23;20460;-83
2023/07/21 14:09:13;;;;;;;4.88;2.63;;;26.20;77.60;;;;;;6161353;23;20024;-82
2023/07/21 14:11:41;;;;;;;2.00;1.52;;;26.30;77.10;;;;;;6165030;23;20051;-80
2023/07/21 14:14:10;;;;;;;3.00;1.60;;;26.50;77.70;;;;;;6188130;23;20020;-82
2023/07/21 14:16:37;;;;;;;4.28;1.90;;;26.60;76.60;;;;;;6189757;23;20475;-83
2023/07/21 14:19:05;;;;;;;4.30;1.92;;;26.50;76.50;;;;;;6161916;23;20928;-82
2023/07/21 14:21:34;;;;;;;3.95;2.25;;;26.50;76.70;;;;;;6187092;23;20031;-82
2023/07/21 14:24:04;;;;;;;2.67;1.95;;;26.50;77.10;;;;;;6161411;23;20111;-82
2023/07/21 14:26:32;;;;;;;3.80;1.70;;;26.40;76.60;;;;;;6187237;23;20021;-84
2023/07/21 14:29:00;;;;;;;2.33;1.80;;;26.50;75.70;;;;;;6164336;23;20021;-84
2023/07/21 14:31:28;;;;;;;3.30;1.95;;;26.40;74.90;;;;;;6161276;23;20071;-82
2023/07/21 14:33:56;;;;;;;2.97;1.73;;;26.50;75.70;;;;;;6159214;23;20028;-82
2023/07/21 14:36:23;;;;;;;2.90;1.45;;;26.50;74.60;;;;;;6185830;23;20020;-85
2023/07/21 14:38:53;;;;;;;2.55;1.55;;;26.30;74.50;;;;;;6165558;23;20079;-83
2023/07/21 14:41:20;;;;;;;2.42;1.30;;;26.20;74.50;;;;;;6165404;23;20098;-82
2023/07/21 14:43:49;;;;;;;3.40;1.50;;;26.20;75.00;;;;;;6163119;23;20025;-83
2023/07/21 14:46:17;;;;;;;1.88;1.13;;;26.40;74.80;;;;;;6162160;23;20452;-79
2023/07/21 14:48:45;;;;;;;3.55;1.50;;;26.40;73.90;;;;;;6161884;23;20460;-80
2023/07/21 14:51:14;;;;;;;2.47;1.30;;;26.40;73.70;;;;;;6187742;23;20123;-86
2023/07/21 14:53:41;;;;;;;2.38;1.20;;;26.40;74.00;;;;;;6154630;23;20020;-80
2023/07/21 14:56:09;;;;;;;3.15;1.20;;;26.30;74.10;;;;;;6163394;23;20016;-82
2023/07/21 14:58:37;;;;;;;2.38;1.20;;;26.30;74.00;;;;;;6184578;23;20023;-83
2023/07/21 15:01:04;;;;;;;2.63;1.13;;;26.30;74.20;;;;;;6186106;23;20024;-81
2023/07/21 15:03:32;;;;;;;2.35;1.33;;;26.20;73.60;;;;;;6163624;23;20028;-82
2023/07/21 15:06:00;;;;;;;3.17;1.30;;;26.10;74.20;;;;;;6164129;23;20037;-83
2023/07/21 15:08:29;;;;;;;3.05;1.60;;;26.10;74.00;;;;;;6189148;23;20064;-83
2023/07/21 15:10:56;;;;;;;2.15;1.20;;;26.10;73.50;;;;;;6189329;23;20023;-81
2023/07/21 15:13:24;;;;;;;3.20;0.98;;;26.10;73.30;;;;;;6163931;23;20032;-82
2023/07/21 15:15:51;;;;;;;2.50;1.35;;;26.20;72.90;;;;;;6163554;23;20021;-82
2023/07/21 15:18:19;;;;;;;2.92;1.40;;;26.20;72.60;;;;;;6164692;23;20020;-80
2023/07/21 15:20:48;;;;;;;4.75;1.63;;;26.30;72.70;;;;;;6188054;23;20029;-81
2023/07/21 15:23:15;;;;;;;3.63;1.10;;;26.30;72.10;;;;;;6160503;23;20027;-81
2023/07/21 15:25:42;;;;;;;1.65;1.00;;;26.30;71.40;;;;;;6163901;23;20076;-82
2023/07/21 15:28:13;;;;;;;4.15;1.50;;;26.20;71.10;;;;;;6162802;23;20472;-82
2023/07/21 15:30:40;;;;;;;1.20;1.00;;;26.10;71.10;;;;;;6189146;23;20035;-81
2023/07/21 15:33:11;;;;;;;2.45;1.33;;;26.20;71.90;;;;;;6165141;23;20023;-81
2023/07/21 15:35:45;;;;;;;3.08;1.45;;;26.20;72.60;;;;;;6189863;23;20043;-82
2023/07/21 15:38:13;;;;;;;1.90;1.25;;;26.10;73.20;;;;;;6189143;23;20013;-82
2023/07/21 15:40:40;;;;;;;3.05;2.00;;;26.10;73.20;;;;;;6164838;23;20104;-82
2023/07/21 15:43:09;;;;;;;2.85;1.02;;;26.00;73.00;;;;;;6164352;23;20400;-81
2023/07/21 15:45:39;;;;;;;3.97;1.02;;;26.00;72.40;;;;;;6189456;23;20044;-81
2023/07/21 15:48:09;;;;;;;2.72;1.42;;;25.90;71.80;;;;;;6164920;23;20031;-81
2023/07/21 15:50:38;;;;;;;2.40;0.80;;;25.90;71.80;;;;;;6165777;23;20047;-80
2023/07/21 15:53:06;;;;;;;6.30;1.25;;;25.90;71.70;;;;;;6140421;23;20016;-79
2023/07/21 15:55:33;;;;;;;2.88;1.00;;;25.70;71.20;;;;;;6166281;23;20606;-81
2023/07/21 15:58:01;;;;;;;2.55;1.17;;;25.70;71.40;;;;;;6215195;23;20396;-83
2023/07/21 16:00:29;;;;;;;2.15;1.13;;;25.70;71.50;;;;;;6163977;23;20031;-81
2023/07/21 16:02:58;;;;;;;2.30;1.25;;;25.60;71.40;;;;;;6165015;23;20055;-82
2023/07/21 16:05:26;;;;;;;1.80;1.10;;;25.50;71.70;;;;;;6164763;23;20471;-80
2023/07/21 16:07:54;;;;;;;2.95;1.45;;;25.40;70.90;;;;;;6190092;23;20055;-83
2023/07/21 16:10:22;;;;;;;3.00;0.85;;;25.30;71.20;;;;;;6164337;23;20016;-80
2023/07/21 16:12:50;;;;;;;2.63;1.35;;;25.30;71.10;;;;;;6165557;23;20020;-81
2023/07/21 16:15:18;;;;;;;1.95;0.70;;;25.20;71.30;;;;;;6190376;23;20429;-82
2023/07/21 16:17:46;;;;;;;2.22;1.05;;;25.10;71.20;;;;;;6161941;23;20099;-82
2023/07/21 16:20:14;;;;;;;2.80;0.70;;;25.10;71.10;;;;;;6162631;23;20020;-82
2023/07/21 16:22:42;;;;;;;4.15;1.77;;;25.00;71.10;;;;;;6127114;23;20032;-80
2023/07/21 16:25:10;;;;;;;5.07;1.63;;;24.90;71.40;;;;;;6102226;23;20025;-80
2023/07/21 16:27:37;;;;;;;3.42;1.27;;;24.90;71.50;;;;;;6126288;23;20057;-85
2023/07/21 16:30:06;;;;;;;3.67;1.00;;;24.90;71.70;;;;;;6126752;23;20446;-80
2023/07/21 16:32:34;;;;;;;2.65;1.08;;;24.80;71.90;;;;;;6125465;23;20036;-85
2023/07/21 16:35:03;;;;;;;1.80;1.08;;;24.80;72.10;;;;;;6127110;23;20073;-82
2023/07/21 16:37:31;;;;;;;1.88;1.23;;;24.80;72.40;;;;;;6102337;23;20129;-82
2023/07/21 16:40:00;;;;;;;1.95;1.05;;;24.80;72.50;;;;;;6100024;23;20665;-81
2023/07/21 16:42:28;;;;;;;2.47;1.50;;;24.70;72.90;;;;;;6150942;23;20029;-84
2023/07/21 16:45:01;;;;;;;1.65;1.10;;;24.70;72.80;;;;;;6103137;23;20035;-81
2023/07/21 16:47:29;;;;;;;2.00;1.00;;;24.60;72.50;;;;;;6125150;23;20032;-82
2023/07/21 16:49:57;;;;;;;4.25;1.33;;;24.60;72.70;;;;;;6126916;23;20025;-80
2023/07/21 16:52:26;;;;;;;3.17;1.90;;;24.60;72.20;;;;;;6101351;23;20052;-82
2023/07/21 16:54:57;;;;;;;4.22;1.15;;;24.50;72.70;;;;;;6103813;23;20021;-81
2023/07/21 16:57:27;;;;;;;1.90;0.90;;;24.50;73.20;;;;;;6102814;23;20022;-80
2023/07/21 17:00:00;;;;;;;1.30;0.80;;;24.50;73.80;;;;;;6124353;23;20059;-80
2023/07/21 17:02:30;;;;;;;3.28;1.38;;;24.30;74.40;;;;;;6187257;23;20032;-81
2023/07/21 17:04:59;;;;;;;2.65;0.98;;;24.40;74.90;;;;;;6139346;23;20028;-80
2023/07/21 17:07:28;;;;;;;3.28;1.13;;;24.30;75.30;;;;;;6163217;23;20102;-82
2023/07/21 17:09:56;;;;;;;2.42;1.23;;;24.20;75.70;;;;;;6161842;23;20027;-80
2023/07/21 17:12:25;;;;;;;2.20;0.88;;;24.20;76.50;;;;;;6162766;23;20068;-81
2023/07/21 17:14:55;;;;;;;4.03;0.95;;;24.10;76.40;;;;;;6187956;23;20055;-82
2023/07/21 17:17:23;;;;;;;3.08;1.05;;;24.20;76.70;;;;;;6162702;23;20020;-80
2023/07/21 17:19:51;;;;;;;3.67;1.08;;;24.10;76.70;;;;;;6163117;23;20052;-81
2023/07/21 17:22:20;;;;;;;2.17;1.35;;;24.10;77.10;;;;;;6161817;23;20395;-83
2023/07/21 17:24:53;;;;;;;3.10;2.03;;;24.00;77.90;;;;;;6187767;23;20059;-85
2023/07/21 17:27:23;;;;;;;3.13;1.27;;;24.10;78.00;;;;;;6185639;23;20032;-80
2023/07/21 17:29:51;;;;;;;2.05;1.10;;;24.00;78.20;;;;;;6162858;23;20511;-81
2023/07/21 17:32:19;;;;;;;1.45;1.20;;;23.90;78.60;;;;;;6163532;23;20103;-80
2023/07/21 17:35:07;;;;;;;3.63;1.20;;;24.00;78.90;;;;;;6157625;23;20223;-83
2023/07/21 17:37:39;;;;;;;2.17;1.40;;;23.90;79.70;;;;;;6158279;23;20465;-84
2023/07/21 17:40:08;;;;;;;2.70;1.77;;;23.90;80.50;;;;;;6159228;23;20104;-83
2023/07/21 17:42:39;;;;;;;3.03;1.30;;;24.00;81.60;;;;;;6159602;23;20125;-83
2023/07/21 17:45:10;;;;;;;3.78;1.42;;;23.80;82.50;;;;;;6160554;23;20025;-86
2023/07/21 17:47:40;;;;;;;2.60;1.10;;;23.80;84.40;;;;;;6160162;23;20088;-87
2023/07/21 17:50:13;;;;;;;4.25;1.63;;;23.70;85.60;;;;;;6159818;23;20105;-86
2023/07/21 17:52:41;;;;;;;2.35;1.58;;;23.60;87.50;;;;;;6135490;23;20109;-83
2023/07/21 17:55:31;;;;;;;3.08;1.80;;;23.40;89.00;;;;;;6159082;23;20028;-87
2023/07/21 18:05:39;;;;;;;9.02;2.63;;;23.20;91.20;;;;;;6152828;23;20057;-79
2023/07/21 18:08:07;;;;;;;6.82;2.28;;;22.70;93.30;;;;;;6128013;23;20017;-78
2023/07/21 18:10:35;;;;;;;7.07;2.00;;;22.60;95.20;;;;;;6155145;23;20085;-78
2023/07/21 18:13:03;;;;;;;6.82;2.13;;;22.50;97.90;;;;;;6128298;23;20018;-78
2023/07/21 18:15:37;;;;;;;7.15;2.70;;;22.50;99.90;;;;;;6154124;23;20022;-78
2023/07/21 18:18:06;;;;;;;5.72;2.25;;;22.40;99.90;;;;;;6128668;23;20025;-78
2023/07/21 18:20:35;;;;;;;3.17;2.10;;;22.20;99.90;;;;;;6152428;23;20025;-78
2023/07/21 18:23:03;;;;;;;4.43;2.80;;;21.90;99.90;;;;;;6128668;23;20050;-76
2023/07/21 18:25:30;;;;;;;5.35;2.78;;;21.70;99.90;;;;;;6154496;23;20092;-77
2023/07/21 18:27:58;;;;;;;4.20;3.25;;;21.20;99.90;;;;;;6128735;23;20040;-77
2023/07/21 18:30:26;;;;;;;6.40;3.22;;;21.20;99.90;;;;;;6153896;23;20096;-77
2023/07/21 18:32:54;;;;;;;6.75;4.15;;;21.00;99.90;;;;;;6102339;23;20025;-76
2023/07/21 18:35:26;;;;;;;5.63;3.30;;;21.00;99.90;;;;;;6152691;23;20464;-76
2023/07/21 18:37:53;;;;;;;;;;;21.10;99.90;;;;;;6099105;23;20105;-76
2023/07/21 18:40:21;;;;;;;6.85;3.25;;;21.00;99.90;;;;;;6117575;23;19917;-76
2023/07/21 18:42:53;;;;;;;6.40;3.30;;;21.10;99.90;;;;;;6060643;23;20477;-76